Winthrop, Arkansas
Current Conditions -  °F | °C
As of 4:05 AM on Tuesday 21 Oct 2014 (Local Time) from KDEQ Reporting Station
Moderate Fog Moderate Fog  
Wind Chill: 53°   Ceiling: 300
Heat Index: 53°   Visibility: 0.5mi
Dew Point: 53°   Wind: 0mph
Humidity: 100%   Direction: NA
Pressure: 30.04"   Gusts: NA
Location:  33.83°N, 94.35°W
Report Text: KDEQ 210905Z AUTO 00000KT 1/2SM FG VV003 12/12 A3004 RMK AO2 T01170117
Loading
Personal Weather Stations






























Interactive Weather Map
Tropical Storm Tracking
New forecast layout! Learn more

10-Day Weather Forecast

Advertisements
Track Severe Weather on mobile